createdAt,value
2019-04-20T00:01:03.490Z,101980.89
2019-04-20T00:03:38.013Z,101983.19
2019-04-20T00:06:09.137Z,101985.40
2019-04-20T00:08:42.729Z,101988.44
2019-04-20T00:11:23.180Z,101990.73
2019-04-20T00:13:54.856Z,101987.22
2019-04-20T00:16:21.059Z,101992.47
2019-04-20T00:18:56.589Z,101986.41
2019-04-20T00:21:47.335Z,101983.92
2019-04-20T00:24:26.900Z,101991.88
2019-04-20T00:27:18.189Z,101985.78
2019-04-20T00:29:47.846Z,101986.26
2019-04-20T00:32:12.529Z,101986.68
2019-04-20T00:34:38.275Z,101988.41
2019-04-20T00:37:08.533Z,101980.25
2019-04-20T00:39:40.607Z,101979.89
2019-04-20T00:42:15.882Z,101979.98
2019-04-20T00:44:49.610Z,101978.20
2019-04-20T00:47:30.895Z,101983.94
2019-04-20T00:50:05.563Z,101978.10
2019-04-20T00:52:32.882Z,101976.34
2019-04-20T00:54:58.131Z,101974.72
2019-04-20T00:57:36.848Z,101973.92
2019-04-20T01:00:21.913Z,101969.94
2019-04-20T01:02:48.654Z,101978.33
2019-04-20T01:05:44.964Z,101966.95
2019-04-20T01:08:01.670Z,101967.86
2019-04-20T01:10:38.483Z,101973.33
2019-04-20T01:13:11.295Z,101967.51
2019-04-20T01:15:47.139Z,101967.14
2019-04-20T01:18:13.823Z,101966.69
2019-04-20T01:20:45.140Z,101966.33
2019-04-20T01:23:20.771Z,101974.22
2019-04-20T01:25:56.813Z,101970.33
2019-04-20T01:28:38.435Z,101965.85
2019-04-20T01:31:06.508Z,101964.64
2019-04-20T01:33:45.178Z,101966.67
2019-04-20T01:36:19.634Z,101963.20
2019-04-20T01:38:55.065Z,101966.00
2019-04-20T01:41:09.606Z,101966.45
2019-04-20T01:43:41.578Z,101965.08
2019-04-20T01:46:17.084Z,101960.33
2019-04-20T01:48:46.339Z,101961.70
2019-04-20T01:51:26.434Z,101960.02
2019-04-20T01:54:06.729Z,101956.09
2019-04-20T01:56:42.593Z,101961.70
2019-04-20T01:59:24.083Z,101958.70
2019-04-20T02:02:08.036Z,101954.38
2019-04-20T02:04:45.178Z,101964.86
2019-04-20T02:07:13.674Z,101961.91
2019-04-20T02:09:51.362Z,101960.52
2019-04-20T02:12:24.387Z,101954.91
2019-04-20T02:14:56.039Z,101958.92
2019-04-20T02:17:33.164Z,101958.42
2019-04-20T02:20:15.676Z,101965.41
2019-04-20T02:22:46.520Z,101954.44
2019-04-20T02:25:05.909Z,101958.45
2019-04-20T02:27:46.461Z,101954.56
2019-04-20T02:30:51.717Z,101961.48
2019-04-20T02:33:32.235Z,101958.34
2019-04-20T02:36:25.353Z,101956.30
2019-04-20T02:41:29.934Z,101956.33
2019-04-20T02:44:14.624Z,101958.01
2019-04-20T02:46:31.571Z,101955.53
2019-04-20T02:49:12.962Z,101956.03
2019-04-20T02:51:44.412Z,101961.69
2019-04-20T02:54:20.377Z,101963.87
2019-04-20T02:56:48.111Z,101965.14
2019-04-20T02:59:48.731Z,101964.73
2019-04-20T03:01:40.775Z,101968.69
2019-04-20T03:03:56.711Z,101971.77
2019-04-20T03:06:36.117Z,101970.42
2019-04-20T03:09:22.556Z,101966.11
2019-04-20T03:12:05.017Z,101971.77
2019-04-20T03:14:21.767Z,101977.89
2019-04-20T03:17:01.375Z,101976.14
2019-04-20T03:19:28.652Z,101973.03
2019-04-20T03:22:08.809Z,101982.17
2019-04-20T03:24:44.231Z,101985.34
2019-04-20T03:27:15.803Z,101986.16
2019-04-20T03:29:55.177Z,101993.98
2019-04-20T03:37:52.671Z,102001.91
2019-04-20T03:40:05.476Z,102003.19
2019-04-20T03:42:22.362Z,102001.34
2019-04-20T03:45:01.831Z,102000.45
2019-04-20T03:47:38.824Z,102006.59
2019-04-20T03:50:30.772Z,102010.47
2019-04-20T03:53:02.766Z,102008.78
2019-04-20T03:55:49.144Z,102008.74
2019-04-20T03:58:24.399Z,102012.66
2019-04-20T04:01:22.770Z,102014.42
2019-04-20T04:03:59.191Z,102015.29
2019-04-20T04:06:22.818Z,102012.28
2019-04-20T04:08:59.942Z,102007.55
2019-04-20T04:11:35.022Z,102010.05
2019-04-20T04:13:50.894Z,102016.14
2019-04-20T04:16:27.211Z,102011.80
2019-04-20T04:19:07.789Z,102014.83
2019-04-20T04:21:44.755Z,102016.15
2019-04-20T04:24:13.063Z,102020.95
2019-04-20T04:26:51.164Z,102018.28
2019-04-20T04:29:29.886Z,102018.20
2019-04-20T04:32:10.482Z,102016.97
2019-04-20T04:34:33.796Z,102021.27
2019-04-20T04:37:15.210Z,102018.20
2019-04-20T04:39:42.830Z,102014.23
2019-04-20T04:42:22.238Z,102015.44
2019-04-20T04:44:43.336Z,102021.13
2019-04-20T04:47:07.026Z,102020.16
2019-04-20T04:49:41.288Z,102023.20
2019-04-20T04:52:13.427Z,102020.12
2019-04-20T04:54:53.741Z,102018.23
2019-04-20T04:57:17.750Z,102024.83
2019-04-20T04:59:50.637Z,102022.17
2019-04-20T05:02:29.965Z,102018.62
2019-04-20T05:05:38.159Z,102017.81
2019-04-20T05:07:57.870Z,102016.81
2019-04-20T05:10:20.659Z,102021.07
2019-04-20T05:12:53.181Z,102021.95
2019-04-20T05:15:37.607Z,102023.63
2019-04-20T05:18:19.475Z,102017.36
2019-04-20T05:20:54.809Z,102016.98
2019-04-20T05:23:20.830Z,102023.91
2019-04-20T05:26:08.270Z,102025.09
2019-04-20T05:28:33.430Z,102023.69
2019-04-20T05:30:59.868Z,102011.28
2019-04-20T05:33:48.544Z,102016.84
2019-04-20T05:36:23.351Z,102020.64
2019-04-20T05:38:54.292Z,102024.55
2019-04-20T05:41:26.907Z,102028.85
2019-04-20T05:43:59.711Z,102022.64
2019-04-20T05:46:40.962Z,102023.83
2019-04-20T05:49:20.632Z,102026.34
2019-04-20T05:51:43.228Z,102027.48
2019-04-20T05:54:23.503Z,102025.56
2019-04-20T05:56:52.422Z,102023.18
2019-04-20T05:59:28.287Z,102026.92
2019-04-20T06:02:03.441Z,102023.77
2019-04-20T06:04:46.943Z,102030.20
2019-04-20T06:07:08.283Z,102028.47
2019-04-20T06:09:42.248Z,102030.50
2019-04-20T06:14:47.281Z,102033.78
2019-04-20T06:17:27.161Z,102028.70
2019-04-20T06:20:02.291Z,102038.42
2019-04-20T06:22:41.625Z,102033.08
2019-04-20T06:25:39.537Z,102035.18
2019-04-20T06:27:53.031Z,102035.02
2019-04-20T06:30:19.086Z,102031.44
2019-04-20T06:33:53.389Z,102033.82
2019-04-20T06:36:24.189Z,102028.47
2019-04-20T06:38:57.404Z,102030.03
2019-04-20T06:41:21.247Z,102028.38
2019-04-20T06:43:53.700Z,102021.45
2019-04-20T06:46:22.754Z,102026.08
2019-04-20T06:48:58.990Z,102021.22
2019-04-20T06:51:49.086Z,102020.06
2019-04-20T06:54:38.026Z,102022.34
2019-04-20T06:57:10.097Z,102024.02
2019-04-20T07:02:21.916Z,102020.84
2019-04-20T07:04:58.108Z,102024.58
2019-04-20T07:07:27.927Z,102015.86
2019-04-20T07:12:31.160Z,102024.03
2019-04-20T07:14:54.445Z,102020.77
2019-04-20T07:17:48.985Z,102023.41
2019-04-20T07:20:27.748Z,102019.95
2019-04-20T07:23:18.243Z,102022.14
2019-04-20T07:25:43.368Z,102020.10
2019-04-20T07:28:14.318Z,102020.73
2019-04-20T07:30:46.435Z,102022.94
2019-04-20T07:33:23.862Z,102020.14
2019-04-20T07:35:50.887Z,102021.78
2019-04-20T07:38:30.899Z,102017.81
2019-04-20T07:40:55.825Z,102015.89
2019-04-20T07:43:33.321Z,102015.28
2019-04-20T07:46:04.920Z,102009.19
2019-04-20T07:48:36.663Z,102013.11
2019-04-20T07:50:59.209Z,102013.59
2019-04-20T07:53:37.950Z,102012.19
2019-04-20T07:56:19.040Z,102012.45
2019-04-20T07:58:39.014Z,102004.59
2019-04-20T08:01:47.815Z,102010.41
2019-04-20T08:04:17.193Z,102007.42
2019-04-20T08:06:43.131Z,102009.67
2019-04-20T08:09:24.379Z,101999.53
2019-04-20T08:12:14.171Z,102002.62
2019-04-20T08:14:46.808Z,102013.61
2019-04-20T08:17:30.477Z,102006.68
2019-04-20T08:19:50.824Z,102013.61
2019-04-20T08:22:26.664Z,102016.53
2019-04-20T08:24:55.348Z,102021.20
2019-04-20T08:27:16.159Z,102013.61
2019-04-20T08:30:03.485Z,102004.55
2019-04-20T08:33:00.417Z,102000.31
2019-04-20T08:35:45.364Z,102003.45
2019-04-20T08:38:37.283Z,102002.52
2019-04-20T08:40:43.694Z,102002.42
2019-04-20T08:43:34.482Z,101993.10
2019-04-20T08:45:57.515Z,101985.31
2019-04-20T08:48:28.760Z,101991.64
2019-04-20T08:51:02.129Z,101983.38
2019-04-20T08:53:37.031Z,101980.70
2019-04-20T08:55:59.120Z,101988.11
2019-04-20T08:58:20.799Z,101983.27
2019-04-20T09:00:58.764Z,101971.48
2019-04-20T09:03:32.648Z,101975.55
2019-04-20T09:06:09.763Z,101979.29
2019-04-20T09:08:47.760Z,101980.53
2019-04-20T09:11:19.693Z,101973.69
2019-04-20T09:13:47.551Z,101975.09
2019-04-20T09:16:13.434Z,101966.61
2019-04-20T09:18:56.948Z,101967.86
2019-04-20T09:21:30.894Z,101962.62
2019-04-20T09:24:21.692Z,101969.16
2019-04-20T09:26:43.258Z,101959.10
2019-04-20T09:29:13.714Z,101958.73
2019-04-20T09:31:47.236Z,101962.67
2019-04-20T09:34:24.970Z,101955.03
2019-04-20T09:37:04.530Z,101953.83
2019-04-20T09:39:36.175Z,101955.84
2019-04-20T09:42:15.527Z,101953.22
2019-04-20T09:44:51.455Z,101954.50
2019-04-20T09:47:27.465Z,101949.59
2019-04-20T09:50:03.584Z,101951.19
2019-04-20T09:52:49.143Z,101944.05
2019-04-20T09:55:18.396Z,101945.09
2019-04-20T09:57:53.984Z,101940.91
2019-04-20T10:00:25.762Z,101936.34
2019-04-20T10:02:44.569Z,101935.14
2019-04-20T10:05:17.647Z,101935.22
2019-04-20T10:07:56.909Z,101938.01
2019-04-20T10:10:31.819Z,101931.70
2019-04-20T10:12:56.390Z,101933.48
2019-04-20T10:15:29.676Z,101917.38
2019-04-20T10:18:01.677Z,101933.03
2019-04-20T10:20:36.885Z,101925.05
2019-04-20T10:23:06.982Z,101920.27
2019-04-20T10:25:38.527Z,101920.49
2019-04-20T10:28:11.673Z,101918.09
2019-04-20T10:30:44.422Z,101921.28
2019-04-20T10:33:15.971Z,101919.88
2019-04-20T10:35:47.733Z,101919.25
2019-04-20T10:38:32.880Z,101915.08
2019-04-20T10:41:12.649Z,101918.66
2019-04-20T10:43:36.864Z,101912.25
2019-04-20T10:46:08.946Z,101914.68
2019-04-20T10:48:47.563Z,101916.52
2019-04-20T10:51:15.524Z,101909.77
2019-04-20T10:53:48.302Z,101908.03
2019-04-20T10:56:21.362Z,101911.80
2019-04-20T10:58:53.805Z,101898.63
2019-04-20T11:01:25.477Z,101904.52
2019-04-20T11:03:58.724Z,101906.58
2019-04-20T11:06:30.344Z,101897.91
2019-04-20T11:09:02.557Z,101893.69
2019-04-20T11:11:37.019Z,101898.00
2019-04-20T11:14:19.624Z,101894.52
2019-04-20T11:16:42.428Z,101888.33
2019-04-20T11:19:14.079Z,101886.61
2019-04-20T11:21:46.322Z,101883.34
2019-04-20T11:24:18.304Z,101888.42
2019-04-20T11:26:52.132Z,101880.09
2019-04-20T11:29:26.305Z,101883.31
2019-04-20T11:31:59.382Z,101875.45
2019-04-20T11:34:33.950Z,101876.66
2019-04-20T11:37:05.136Z,101877.44
2019-04-20T11:39:37.038Z,101873.66
2019-04-20T11:42:09.842Z,101880.36
2019-04-20T11:44:42.422Z,101877.06
2019-04-20T11:47:15.193Z,101873.66
2019-04-20T11:49:46.853Z,101869.44
2019-04-20T11:52:21.421Z,101871.17
2019-04-20T11:54:52.666Z,101867.13
2019-04-20T11:57:25.066Z,101858.27
2019-04-20T11:59:59.215Z,101860.13
2019-04-20T12:02:40.417Z,101860.78
2019-04-20T12:05:24.700Z,101861.56
2019-04-20T12:07:55.527Z,101851.01
2019-04-20T12:10:29.612Z,101856.15
2019-04-20T12:13:01.883Z,101856.75
2019-04-20T12:15:36.569Z,101847.18
2019-04-20T12:18:07.922Z,101852.20
2019-04-20T12:20:40.753Z,101852.25
2019-04-20T12:23:12.770Z,101849.20
2019-04-20T12:25:45.004Z,101849.75
2019-04-20T12:28:17.986Z,101849.20
2019-04-20T12:30:49.887Z,101849.07
2019-04-20T12:33:22.108Z,101848.90
2019-04-20T12:35:54.215Z,101843.99
2019-04-20T12:38:27.353Z,101845.38
2019-04-20T12:41:01.450Z,101849.84
2019-04-20T12:43:33.887Z,101846.08
2019-04-20T12:46:05.883Z,101835.67
2019-04-20T12:48:37.717Z,101840.76
2019-04-20T12:51:09.435Z,101833.81
2019-04-20T12:53:40.929Z,101832.78
2019-04-20T12:56:12.811Z,101833.64
2019-04-20T12:58:45.150Z,101831.22
2019-04-20T13:01:19.336Z,101819.87
2019-04-20T13:03:49.951Z,101823.71
2019-04-20T13:06:21.808Z,101819.32
2019-04-20T13:08:57.497Z,101823.63
2019-04-20T13:11:49.457Z,101824.23
2019-04-20T13:14:40.106Z,101818.96
2019-04-20T13:17:12.390Z,101818.45
2019-04-20T13:19:45.109Z,101817.25
2019-04-20T13:22:17.087Z,101808.91
2019-04-20T13:24:49.349Z,101808.53
2019-04-20T13:27:20.978Z,101803.59
2019-04-20T13:29:55.838Z,101806.55
2019-04-20T13:32:29.783Z,101801.77
2019-04-20T13:35:04.555Z,101799.72
2019-04-20T13:37:45.194Z,101799.95
2019-04-20T13:40:19.702Z,101798.65
2019-04-20T13:42:52.000Z,101807.56
2019-04-20T13:45:24.674Z,101799.05
2019-04-20T13:47:57.010Z,101802.73
2019-04-20T13:50:29.638Z,101802.14
2019-04-20T13:53:01.366Z,101801.73
2019-04-20T13:55:33.832Z,101798.48
2019-04-20T13:58:23.243Z,101792.92
2019-04-20T14:00:59.077Z,101790.70
2019-04-20T14:03:34.503Z,101792.56
2019-04-20T14:06:06.867Z,101791.41
2019-04-20T14:08:39.480Z,101799.28
2019-04-20T14:11:11.467Z,101791.70
2019-04-20T14:13:48.995Z,101794.34
2019-04-20T14:16:16.773Z,101788.57
2019-04-20T14:18:49.215Z,101792.27
2019-04-20T14:21:20.954Z,101794.59
2019-04-20T14:23:57.146Z,101791.17
2019-04-20T14:26:28.988Z,101788.80
2019-04-20T14:29:00.921Z,101791.23
2019-04-20T14:31:33.997Z,101791.47
2019-04-20T14:34:06.830Z,101784.59
2019-04-20T14:36:39.082Z,101783.13
2019-04-20T14:39:11.980Z,101783.41
2019-04-20T14:41:44.487Z,101779.34
2019-04-20T14:44:16.251Z,101778.27
2019-04-20T14:46:49.601Z,101778.33
2019-04-20T14:49:21.381Z,101782.46
2019-04-20T14:51:55.833Z,101775.27
2019-04-20T14:54:27.602Z,101775.73
2019-04-20T14:56:59.265Z,101779.25
2019-04-20T14:59:35.867Z,101783.25
2019-04-20T15:02:10.382Z,101779.94
2019-04-20T15:04:45.221Z,101775.05
2019-04-20T15:07:18.276Z,101775.56
2019-04-20T15:09:51.062Z,101773.77
2019-04-20T15:12:35.093Z,101766.48
2019-04-20T15:14:56.654Z,101762.88
2019-04-20T15:17:35.523Z,101762.17
2019-04-20T15:20:09.768Z,101763.84
2019-04-20T15:22:49.805Z,101757.60
2019-04-20T15:25:23.369Z,101763.53
2019-04-20T15:27:56.275Z,101768.84
2019-04-20T15:30:27.827Z,101765.69
2019-04-20T15:33:00.963Z,101762.97
2019-04-20T15:35:34.615Z,101771.64
2019-04-20T15:38:07.072Z,101762.25
2019-04-20T15:40:39.471Z,101770.05
2019-04-20T15:43:15.869Z,101779.36
2019-04-20T15:45:45.404Z,101766.46
2019-04-20T15:48:18.093Z,101774.05
2019-04-20T15:51:03.698Z,101767.38
2019-04-20T15:53:33.953Z,101767.88
2019-04-20T15:56:08.050Z,101774.50
2019-04-20T15:58:38.804Z,101769.56
2019-04-20T16:01:10.651Z,101766.05
2019-04-20T16:03:47.636Z,101773.16
2019-04-20T16:06:21.214Z,101770.39
2019-04-20T16:08:56.466Z,101775.48
2019-04-20T16:11:28.789Z,101777.39
2019-04-20T16:14:03.468Z,101773.96
2019-04-20T16:16:35.123Z,101772.84
2019-04-20T16:19:14.633Z,101777.44
2019-04-20T16:21:39.965Z,101783.34
2019-04-20T16:24:13.041Z,101780.58
2019-04-20T16:26:47.419Z,101788.58
2019-04-20T16:29:21.694Z,101793.95
2019-04-20T16:31:54.329Z,101787.78
2019-04-20T16:34:27.611Z,101789.93
2019-04-20T16:36:59.886Z,101795.75
2019-04-20T16:39:32.301Z,101794.37
2019-04-20T16:42:08.656Z,101794.11
2019-04-20T16:44:41.060Z,101801.46
2019-04-20T16:47:14.220Z,101798.75
2019-04-20T16:49:46.750Z,101802.23
2019-04-20T16:52:19.065Z,101802.52
2019-04-20T16:54:50.879Z,101810.26
2019-04-20T16:57:23.584Z,101813.19
2019-04-20T16:59:57.797Z,101808.53
2019-04-20T17:02:29.854Z,101807.56
2019-04-20T17:05:02.974Z,101812.61
2019-04-20T17:07:37.296Z,101811.91
2019-04-20T17:10:11.926Z,101814.80
2019-04-20T17:12:44.010Z,101811.07
2019-04-20T17:15:16.454Z,101822.33
2019-04-20T17:17:50.293Z,101822.04
2019-04-20T17:20:22.281Z,101822.73
2019-04-20T17:22:54.555Z,101819.80
2019-04-20T17:25:26.190Z,101826.21
2019-04-20T17:27:59.588Z,101824.59
2019-04-20T17:30:33.642Z,101831.20
2019-04-20T17:33:10.415Z,101832.76
2019-04-20T17:35:53.154Z,101829.87
2019-04-20T17:38:18.499Z,101834.77
2019-04-20T17:41:03.004Z,101837.08
2019-04-20T17:43:31.423Z,101839.09
2019-04-20T17:46:07.387Z,101835.28
2019-04-20T17:48:44.611Z,101835.88
2019-04-20T17:51:24.007Z,101832.06
2019-04-20T17:53:51.132Z,101833.97
2019-04-20T17:56:15.255Z,101833.67
2019-04-20T17:58:48.023Z,101834.41
2019-04-20T18:01:35.731Z,101835.42
2019-04-20T18:04:32.197Z,101838.59
2019-04-20T18:06:47.850Z,101845.75
2019-04-20T18:09:34.804Z,101851.69
2019-04-20T18:11:47.319Z,101851.71
2019-04-20T18:14:34.123Z,101851.25
2019-04-20T18:17:13.851Z,101847.53
2019-04-20T18:19:47.043Z,101850.27
2019-04-20T18:22:19.539Z,101849.09
2019-04-20T18:25:13.462Z,101842.66
2019-04-20T18:27:43.962Z,101841.80
2019-04-20T18:30:15.701Z,101843.44
2019-04-20T18:32:35.747Z,101843.64
2019-04-20T18:35:16.274Z,101839.20
2019-04-20T18:37:56.890Z,101843.37
2019-04-20T18:40:32.498Z,101844.07
2019-04-20T18:43:06.274Z,101845.88
2019-04-20T18:45:48.160Z,101841.45
2019-04-20T18:48:24.497Z,101841.51
2019-04-20T18:50:40.771Z,101837.28
2019-04-20T18:53:16.669Z,101840.63
2019-04-20T18:55:49.579Z,101838.05
2019-04-20T18:58:17.421Z,101830.20
2019-04-20T19:00:51.953Z,101832.39
2019-04-20T19:03:29.969Z,101836.97
2019-04-20T19:05:57.925Z,101832.09
2019-04-20T19:08:37.651Z,101834.14
2019-04-20T19:11:07.680Z,101835.79
2019-04-20T19:13:44.605Z,101838.51
2019-04-20T19:16:36.627Z,101835.47
2019-04-20T19:19:14.033Z,101831.13
2019-04-20T19:21:37.387Z,101827.33
2019-04-20T19:24:13.204Z,101829.05
2019-04-20T19:26:44.998Z,101826.03
2019-04-20T19:29:24.297Z,101827.00
2019-04-20T19:32:07.598Z,101824.95
2019-04-20T19:34:37.804Z,101822.03
2019-04-20T19:37:06.328Z,101819.91
2019-04-20T19:39:47.375Z,101818.99
2019-04-20T19:42:19.709Z,101815.62
2019-04-20T19:44:51.911Z,101816.92
2019-04-20T19:47:31.254Z,101816.81
2019-04-20T19:49:56.139Z,101812.28
2019-04-20T19:52:46.259Z,101810.45
2019-04-20T19:55:06.748Z,101815.16
2019-04-20T19:57:42.554Z,101811.53
2019-04-20T19:59:58.189Z,101817.80
2019-04-20T20:02:29.856Z,101820.13
2019-04-20T20:05:08.528Z,101813.25
2019-04-20T20:07:41.865Z,101818.58
2019-04-20T20:10:10.988Z,101821.23
2019-04-20T20:12:48.325Z,101815.59
2019-04-20T20:15:24.238Z,101824.30
2019-04-20T20:18:12.409Z,101813.59
2019-04-20T20:20:47.125Z,101812.51
2019-04-20T20:23:00.682Z,101816.27
2019-04-20T20:25:37.110Z,101814.79
2019-04-20T20:28:25.839Z,101816.97
2019-04-20T20:30:55.030Z,101813.69
2019-04-20T20:33:27.832Z,101812.24
2019-04-20T20:35:58.283Z,101811.88
2019-04-20T20:38:28.015Z,101813.39
2019-04-20T20:41:07.795Z,101811.03
2019-04-20T20:43:40.741Z,101812.14
2019-04-20T20:46:15.205Z,101811.96
2019-04-20T20:49:02.810Z,101806.28
2019-04-20T20:51:23.246Z,101808.84
2019-04-20T20:53:51.285Z,101814.85
2019-04-20T20:56:23.755Z,101816.53
2019-04-20T20:58:57.350Z,101812.84
2019-04-20T21:01:25.621Z,101806.56
2019-04-20T21:03:54.736Z,101805.10
2019-04-20T21:06:26.658Z,101807.27
2019-04-20T21:09:01.264Z,101811.22
2019-04-20T21:11:35.747Z,101812.73
2019-04-20T21:14:06.853Z,101811.02
2019-04-20T21:16:48.268Z,101809.65
2019-04-20T21:19:29.648Z,101808.44
2019-04-20T21:21:55.895Z,101810.21
2019-04-20T21:24:23.723Z,101810.30
2019-04-20T21:26:55.991Z,101817.20
2019-04-20T21:29:35.929Z,101814.88
2019-04-20T21:32:08.639Z,101809.34
2019-04-20T21:34:36.184Z,101810.52
2019-04-20T21:37:11.747Z,101810.97
2019-04-20T21:39:46.458Z,101809.93
2019-04-20T21:42:18.033Z,101808.00
2019-04-20T21:45:05.665Z,101806.91
2019-04-20T21:47:33.612Z,101805.59
2019-04-20T21:50:18.826Z,101804.46
2019-04-20T21:52:40.845Z,101804.65
2019-04-20T21:55:08.241Z,101796.13
2019-04-20T21:57:48.659Z,101802.25
2019-04-20T22:00:25.079Z,101797.48
2019-04-20T22:02:56.833Z,101799.63
2019-04-20T22:05:25.300Z,101792.13
2019-04-20T22:08:03.256Z,101796.03
2019-04-20T22:10:32.829Z,101791.37
2019-04-20T22:13:04.863Z,101791.14
2019-04-20T22:15:46.564Z,101791.60
2019-04-20T22:18:16.305Z,101788.37
2019-04-20T22:21:01.709Z,101785.61
2019-04-20T22:23:36.441Z,101782.66
2019-04-20T22:26:03.849Z,101779.03
2019-04-20T22:28:26.514Z,101779.84
2019-04-20T22:30:59.982Z,101781.34
2019-04-20T22:33:40.023Z,101781.84
2019-04-20T22:36:11.361Z,101778.08
2019-04-20T22:39:01.913Z,101780.10
2019-04-20T22:41:38.571Z,101783.31
2019-04-20T22:44:18.710Z,101775.30
2019-04-20T22:46:47.296Z,101778.34
2019-04-20T22:49:38.931Z,101778.47
2019-04-20T22:52:00.646Z,101778.10
2019-04-20T22:54:42.276Z,101772.72
2019-04-20T22:57:11.939Z,101767.33
2019-04-20T22:59:42.147Z,101774.57
2019-04-20T23:02:07.656Z,101770.62
2019-04-20T23:04:40.200Z,101773.30
2019-04-20T23:07:12.790Z,101768.66
2019-04-20T23:09:50.869Z,101774.24
2019-04-20T23:12:22.710Z,101773.39
2019-04-20T23:14:52.475Z,101769.61
2019-04-20T23:17:35.988Z,101768.00
2019-04-20T23:20:03.235Z,101764.64
2019-04-20T23:22:40.976Z,101766.23
2019-04-20T23:25:09.206Z,101765.70
2019-04-20T23:27:42.109Z,101764.11
2019-04-20T23:30:23.350Z,101764.31
2019-04-20T23:32:49.763Z,101762.17
2019-04-20T23:35:24.790Z,101760.04
2019-04-20T23:38:02.938Z,101759.88
2019-04-20T23:40:29.859Z,101757.04
2019-04-20T23:43:21.402Z,101767.59
2019-04-20T23:46:03.317Z,101761.52
2019-04-20T23:48:42.982Z,101758.52
2019-04-20T23:51:36.755Z,101763.09
2019-04-20T23:53:56.463Z,101771.63
2019-04-20T23:56:22.043Z,101771.42
2019-04-20T23:58:55.141Z,101773.22
